Time;durP1;ratioP1;P1;durP2;ratioP2;P2;SDS_P1;SDS_P2;PMS_P1;PMS_P2;Temp;Humidity;BMP_temperature;BMP_pressure;BME280_temperature;BME280_humidity;BME280_pressure;Samples;Min_cycle;Max_cycle;Signal;HPM_P1;HPM_P2
2022/11/17 00:02:23;;;;;;;12.40;7.93;;;;;;;9.96;100.00;97533.06;5097616;28;20094;-94
2022/11/17 00:04:49;;;;;;;13.50;7.88;;;;;;;10.08;100.00;97528.97;5097480;28;20041;-95
2022/11/17 00:07:15;;;;;;;15.57;8.00;;;;;;;10.15;100.00;97532.22;5097435;28;20102;-95
2022/11/17 00:09:41;;;;;;;12.80;7.80;;;;;;;10.27;100.00;97545.81;5097435;28;20078;-95
2022/11/17 00:15:08;;;;;;;12.35;7.60;;;;;;;10.40;100.00;97562.09;5099154;27;20390;-94
2022/11/17 00:17:34;;;;;;;12.20;7.45;;;;;;;10.29;100.00;97527.19;5097282;28;20485;-94
2022/11/17 00:23:06;;;;;;;13.00;7.68;;;;;;;10.37;100.00;97530.34;5119422;27;20376;-95
2022/11/17 00:25:32;;;;;;;13.88;7.88;;;;;;;10.34;100.00;97514.53;5117688;28;20073;-94
2022/11/17 00:27:58;;;;;;;12.85;8.20;;;;;;;10.23;100.00;97508.81;5117408;28;20056;-94
2022/11/17 00:36:26;;;;;;;14.73;9.25;;;;;;;10.23;100.00;97524.75;5097633;27;20379;-95
2022/11/17 00:38:52;;;;;;;18.55;10.10;;;;;;;10.24;100.00;97519.38;5097680;28;20083;-95
2022/11/17 00:41:18;;;;;;;17.17;10.18;;;;;;;10.30;100.00;97518.28;5096813;28;20048;-95
2022/11/17 00:43:44;;;;;;;19.42;11.38;;;;;;;10.27;100.00;97524.53;5095574;28;20075;-93
2022/11/17 00:46:10;;;;;;;16.05;11.15;;;;;;;10.33;100.00;97527.91;5096112;28;20052;-95
2022/11/17 00:48:35;;;;;;;20.20;10.43;;;;;;;10.26;100.00;97537.94;5096202;28;20040;-93
2022/11/17 00:51:03;;;;;;;19.92;10.93;;;;;;;10.08;100.00;97507.72;5095662;28;20071;-95
2022/11/17 00:53:30;;;;;;;18.98;11.00;;;;;;;10.10;100.00;97531.56;5096932;28;20044;-94
2022/11/17 00:55:56;;;;;;;20.33;12.05;;;;;;;9.97;100.00;97510.84;5096507;28;20044;-96
2022/11/17 00:58:22;;;;;;;20.50;11.82;;;;;;;9.97;100.00;97520.63;5096169;28;20124;-95
2022/11/17 01:00:48;;;;;;;16.75;12.10;;;;;;;10.12;100.00;97525.25;5095777;28;20048;-94
2022/11/17 01:03:14;;;;;;;19.02;12.02;;;;;;;10.08;100.00;97519.22;5095185;28;20076;-94
2022/11/17 01:05:40;;;;;;;24.05;12.25;;;;;;;10.06;100.00;97515.78;5094888;28;20040;-93
2022/11/17 01:08:05;;;;;;;21.77;11.55;;;;;;;10.32;100.00;97529.69;5092519;28;20131;-95
2022/11/17 01:10:35;;;;;;;22.48;11.90;;;;;;;10.36;100.00;97530.41;5095453;28;20125;-94
2022/11/17 01:13:00;;;;;;;;;;;;;;;10.46;100.00;97556.50;5096147;28;20478;-94
2022/11/17 01:15:26;;;;;;;18.98;10.90;;;;;;;10.22;100.00;97542.50;5093407;28;19927;-94
2022/11/17 01:17:52;;;;;;;19.35;11.00;;;;;;;10.04;100.00;97522.94;5094632;28;20131;-93
2022/11/17 01:20:19;;;;;;;18.52;11.55;;;;;;;10.10;100.00;97551.00;5095973;28;20068;-95
2022/11/17 01:22:44;;;;;;;17.88;10.90;;;;;;;9.87;100.00;97528.16;5095827;28;20044;-94
2022/11/17 01:25:10;;;;;;;15.93;10.48;;;;;;;9.80;100.00;97539.94;5094901;28;20059;-95
2022/11/17 01:27:38;;;;;;;17.30;11.18;;;;;;;9.82;100.00;97548.72;5093469;28;20143;-94
2022/11/17 01:30:04;;;;;;;16.75;10.48;;;;;;;9.69;100.00;97537.75;5094502;28;20047;-95
2022/11/17 01:32:30;;;;;;;18.35;11.38;;;;;;;9.63;100.00;97544.22;5094470;28;20049;-95
2022/11/17 01:34:56;;;;;;;16.60;10.55;;;;;;;9.62;100.00;97546.94;5094446;28;20048;-95
2022/11/17 01:37:22;;;;;;;19.85;10.85;;;;;;;9.54;100.00;97538.41;5093500;28;20048;-93
2022/11/17 01:39:49;;;;;;;18.48;10.73;;;;;;;9.59;100.00;97545.28;5093325;28;20072;-94
2022/11/17 01:42:16;;;;;;;20.50;11.23;;;;;;;9.54;100.00;97549.94;5093913;28;20079;-93
2022/11/17 01:45:04;;;;;;;16.30;9.48;;;;;;;9.45;100.00;97539.69;5094090;28;20480;-96
2022/11/17 01:47:45;;;;;;;19.83;10.75;;;;;;;9.47;100.00;97529.88;5081553;28;20056;-95
2022/11/17 01:50:23;;;;;;;19.98;11.48;;;;;;;9.46;100.00;97536.13;5082727;28;20485;-95
2022/11/17 01:52:51;;;;;;;17.27;10.55;;;;;;;9.49;100.00;97533.31;5083461;28;20044;-95
2022/11/17 01:55:19;;;;;;;17.65;11.27;;;;;;;9.55;100.00;97533.06;5083612;28;20036;-95
2022/11/17 01:57:49;;;;;;;17.70;11.38;;;;;;;9.51;100.00;97522.66;5083086;28;20091;-95
2022/11/17 02:00:17;;;;;;;21.55;12.85;;;;;;;9.64;100.00;97545.94;5081585;28;20052;-95
2022/11/17 02:02:45;;;;;;;20.48;12.52;;;;;;;9.66;100.00;97532.59;5082923;28;20082;-95
2022/11/17 02:05:30;;;;;;;22.42;12.90;;;;;;;9.82;100.00;97551.38;5082376;28;20073;-95
2022/11/17 02:08:00;;;;;;;20.25;12.15;;;;;;;9.81;100.00;97531.06;5082734;28;20512;-94
2022/11/17 02:10:29;;;;;;;22.38;13.90;;;;;;;9.84;100.00;97515.84;5082542;28;20041;-95
2022/11/17 02:12:55;;;;;;;22.15;12.77;;;;;;;9.90;100.00;97529.81;5084816;28;20048;-96
2022/11/17 02:15:23;;;;;;;23.30;13.52;;;;;;;9.91;100.00;97526.22;5084566;28;20481;-95
2022/11/17 02:17:51;;;;;;;26.23;13.80;;;;;;;9.90;100.00;97519.19;5085772;28;20076;-96
2022/11/17 02:20:23;;;;;;;21.70;12.27;;;;;;;9.95;100.00;97525.13;5085830;28;20040;-96
2022/11/17 02:23:36;;;;;;;18.25;10.50;;;;;;;9.97;100.00;97550.69;5085677;28;20044;-96
2022/11/17 02:26:29;;;;;;;17.70;10.48;;;;;;;9.89;100.00;97550.19;5082642;28;20098;-93
2022/11/17 02:29:03;;;;;;;21.35;12.38;;;;;;;9.76;100.00;97515.34;5080652;28;20052;-95
2022/11/17 02:31:38;;;;;;;22.17;12.35;;;;;;;9.80;100.00;97522.25;5085950;28;20044;-96
2022/11/17 02:34:14;;;;;;;20.13;12.55;;;;;;;9.87;100.00;97531.66;5085562;28;20047;-95
2022/11/17 02:36:46;;;;;;;22.48;13.43;;;;;;;9.79;100.00;97539.09;5082688;28;20055;-94
2022/11/17 02:39:18;;;;;;;23.58;14.10;;;;;;;9.83;100.00;97526.56;5078864;28;20047;-95
2022/11/17 02:41:53;;;;;;;23.88;12.65;;;;;;;9.90;100.00;97513.88;5084058;28;20486;-96
2022/11/17 02:44:28;;;;;;;21.17;11.73;;;;;;;9.91;100.00;97518.25;5086765;28;20063;-96
2022/11/17 02:47:00;;;;;;;19.08;11.68;;;;;;;9.89;100.00;97523.63;5084140;28;20048;-95
2022/11/17 02:49:32;;;;;;;19.17;11.65;;;;;;;9.82;100.00;97531.00;5084464;28;20054;-95
2022/11/17 02:52:00;;;;;;;16.63;11.02;;;;;;;9.81;100.00;97529.28;5084909;28;20044;-95
2022/11/17 02:54:28;;;;;;;20.52;11.15;;;;;;;10.04;100.00;97552.16;5083491;28;20068;-95
2022/11/17 02:56:55;;;;;;;20.58;11.55;;;;;;;9.82;100.00;97532.78;5083765;28;20043;-94
2022/11/17 02:59:27;;;;;;;19.98;11.80;;;;;;;9.86;100.00;97540.53;5082798;28;20126;-94
2022/11/17 03:02:20;;;;;;;17.50;11.23;;;;;;;9.73;100.00;97543.81;5084259;28;20112;-96
2022/11/17 03:05:03;;;;;;;20.35;11.68;;;;;;;9.63;100.00;97540.72;5081017;28;20064;-95
2022/11/17 03:07:39;;;;;;;21.05;11.63;;;;;;;9.58;100.00;97540.88;5084934;28;20055;-94
2022/11/17 03:10:14;;;;;;;22.58;13.27;;;;;;;9.60;100.00;97546.97;5085630;28;20041;-96
2022/11/17 03:12:47;;;;;;;22.73;13.40;;;;;;;9.56;100.00;97547.19;5084155;28;20048;-95
2022/11/17 03:15:26;;;;;;;23.75;13.07;;;;;;;9.57;100.00;97549.78;5082633;28;20040;-96
2022/11/17 03:18:03;;;;;;;22.13;12.68;;;;;;;9.58;100.00;97548.84;5084459;28;20052;-96
2022/11/17 03:20:36;;;;;;;24.63;13.95;;;;;;;9.65;100.00;97558.28;5084885;28;20047;-95
2022/11/17 03:23:06;;;;;;;190.80;19.92;;;;;;;9.63;100.00;97549.53;5083285;28;20041;-95
2022/11/17 03:25:36;;;;;;;95.50;16.80;;;;;;;9.62;100.00;97553.09;5084526;28;20044;-96
2022/11/17 03:28:06;;;;;;;26.23;13.88;;;;;;;9.58;100.00;97548.84;5083433;28;20045;-95
2022/11/17 03:30:36;;;;;;;86.93;15.80;;;;;;;9.58;100.00;97534.72;5084057;28;20072;-95
2022/11/17 03:33:07;;;;;;;126.32;17.30;;;;;;;9.60;100.00;97540.81;5083475;28;20055;-94
2022/11/17 03:35:37;;;;;;;164.82;19.65;;;;;;;9.62;100.00;97569.00;5081724;28;20062;-96
2022/11/17 03:38:07;;;;;;;35.92;13.75;;;;;;;9.53;100.00;97536.72;5085816;28;20068;-95
2022/11/17 03:40:36;;;;;;;44.75;13.20;;;;;;;9.54;100.00;97549.94;5085841;28;20049;-94
2022/11/17 03:43:06;;;;;;;74.20;13.75;;;;;;;9.50;100.00;97545.66;5084199;28;20048;-95
2022/11/17 03:45:36;;;;;;;59.08;13.13;;;;;;;9.50;100.00;97547.44;5084115;28;20064;-94
2022/11/17 03:48:09;;;;;;;115.60;16.33;;;;;;;9.50;100.00;97553.63;5083938;28;20095;-94
2022/11/17 03:50:39;;;;;;;58.28;13.82;;;;;;;9.52;100.00;97565.06;5084376;28;20094;-94
2022/11/17 03:53:06;;;;;;;96.97;14.35;;;;;;;9.51;100.00;97568.63;5083827;28;20067;-94
2022/11/17 03:55:40;;;;;;;92.28;14.15;;;;;;;9.48;100.00;97562.56;5082283;28;20049;-96
2022/11/17 03:58:13;;;;;;;122.15;15.40;;;;;;;9.50;100.00;97560.72;5082600;28;20505;-96
2022/11/17 04:00:42;;;;;;;68.10;13.40;;;;;;;9.44;100.00;97569.81;5082414;28;20040;-94
2022/11/17 04:03:08;;;;;;;29.13;13.07;;;;;;;9.46;100.00;97566.16;5083506;28;20109;-95
2022/11/17 04:05:34;;;;;;;63.22;13.27;;;;;;;9.55;100.00;97580.84;5082640;28;20042;-95
2022/11/17 04:08:00;;;;;;;37.65;12.52;;;;;;;9.59;100.00;97585.09;5083263;28;20147;-94
2022/11/17 04:10:26;;;;;;;62.95;13.93;;;;;;;9.52;100.00;97570.34;5082954;28;20052;-95
2022/11/17 04:15:57;;;;;;;93.05;14.48;;;;;;;9.42;100.00;97569.00;5118852;27;20369;-94
2022/11/17 04:18:23;;;;;;;22.25;11.68;;;;;;;9.52;100.00;97606.63;5118073;28;20078;-96
2022/11/17 04:20:50;;;;;;;33.17;11.85;;;;;;;9.39;100.00;97587.69;5118859;28;20047;-95
2022/11/17 04:23:16;;;;;;;49.17;12.30;;;;;;;9.29;100.00;97571.31;5118941;28;20048;-95
2022/11/17 04:28:48;;;;;;;40.38;12.38;;;;;;;9.44;100.00;97602.50;5095383;28;20379;-94
2022/11/17 04:31:17;;;;;;;59.85;13.75;;;;;;;9.28;100.00;97592.56;5077197;28;20051;-94
2022/11/17 04:33:45;;;;;;;72.53;13.90;;;;;;;9.28;100.00;97603.19;5077841;28;20048;-95
2022/11/17 04:36:12;;;;;;;54.97;12.50;;;;;;;9.23;100.00;97584.81;5078340;28;20044;-95
2022/11/17 04:38:40;;;;;;;88.65;13.45;;;;;;;9.31;100.00;97589.81;5077220;28;20041;-93
2022/11/17 04:44:07;;;;;;;49.05;12.13;;;;;;;9.19;100.00;97591.16;5137264;27;1847253;-93
2022/11/17 04:46:35;;;;;;;37.22;12.15;;;;;;;9.20;100.00;97574.34;5161296;27;20026;-94
2022/11/17 04:49:01;;;;;;;19.95;10.93;;;;;;;9.27;100.00;97567.84;5161019;27;20492;-95
2022/11/17 04:51:28;;;;;;;17.88;11.13;;;;;;;9.22;100.00;97569.84;5161713;27;20042;-93
2022/11/17 04:53:55;;;;;;;21.95;11.13;;;;;;;9.18;100.00;97577.03;5161166;27;20045;-94
2022/11/17 04:56:29;;;;;;;21.48;11.73;;;;;;;9.10;100.00;97578.28;5161379;27;20518;-94
2022/11/17 04:58:55;;;;;;;19.50;10.80;;;;;;;9.04;100.00;97572.31;5160747;27;20046;-95
2022/11/17 05:01:24;;;;;;;19.10;11.70;;;;;;;9.06;100.00;97574.88;5160629;27;20398;-94
2022/11/17 05:03:51;;;;;;;18.08;11.05;;;;;;;9.19;100.00;97599.13;5159997;27;20057;-95
2022/11/17 05:06:19;;;;;;;19.50;10.98;;;;;;;8.99;100.00;97568.09;5162830;27;20132;-93
2022/11/17 05:08:46;;;;;;;36.33;11.65;;;;;;;8.99;100.00;97574.25;5161608;27;20137;-93
2022/11/17 05:14:15;;;;;;;16.60;10.63;;;;;;;9.00;100.00;97598.97;5118960;27;20381;-94
2022/11/17 05:19:43;;;;;;;17.08;11.00;;;;;;;9.01;100.00;97603.38;5098589;27;20381;-93
2022/11/17 05:25:18;;;;;;;18.98;11.23;;;;;;;8.74;100.00;97595.59;5198164;27;20117;-93
2022/11/17 05:27:44;;;;;;;19.80;11.05;;;;;;;8.66;100.00;97580.91;5180890;27;20046;-93
2022/11/17 05:30:11;;;;;;;14.27;9.07;;;;;;;8.75;100.00;97612.34;5180634;27;20046;-95
2022/11/17 05:32:37;;;;;;;14.27;8.88;;;;;;;8.60;100.00;97590.78;5180723;27;20137;-94
2022/11/17 05:35:03;;;;;;;12.70;8.02;;;;;;;8.51;100.00;97583.19;5180513;27;20073;-94
2022/11/17 05:37:29;;;;;;;12.75;7.70;;;;;;;8.53;100.00;97601.69;5181055;27;20045;-94
2022/11/17 05:39:55;;;;;;;13.48;8.15;;;;;;;8.52;100.00;97599.94;5179564;27;20161;-95
2022/11/17 05:42:23;;;;;;;11.40;7.47;;;;;;;8.62;100.00;97612.81;5180417;27;20045;-96
2022/11/17 05:44:48;;;;;;;11.13;6.53;;;;;;;8.49;100.00;97600.09;5181174;27;20092;-93
2022/11/17 05:47:15;;;;;;;12.35;7.50;;;;;;;8.56;100.00;97593.63;5180294;27;20498;-94
2022/11/17 05:49:41;;;;;;;12.02;6.75;;;;;;;8.78;100.00;97620.16;5181101;27;20042;-95
2022/11/17 05:52:06;;;;;;;12.95;6.80;;;;;;;8.60;100.00;97597.88;5181124;27;20478;-93
2022/11/17 05:54:32;;;;;;;12.95;8.05;;;;;;;8.63;100.00;97601.28;5181603;27;20038;-95
2022/11/17 05:57:03;;;;;;;13.55;7.75;;;;;;;8.82;100.00;97617.34;5181738;27;20066;-96
2022/11/17 05:59:35;;;;;;;13.63;8.75;;;;;;;8.88;100.00;97599.47;5181749;27;20137;-93
2022/11/17 06:02:05;;;;;;;11.90;7.60;;;;;;;8.81;100.00;97589.13;5181897;27;20049;-95
2022/11/17 06:04:31;;;;;;;14.25;7.78;;;;;;;8.87;100.00;97619.84;5181412;27;20420;-95
2022/11/17 06:06:58;;;;;;;13.60;8.13;;;;;;;8.87;100.00;97616.28;5181469;27;20160;-94
2022/11/17 06:09:27;;;;;;;14.98;10.00;;;;;;;8.95;100.00;97616.88;5183115;27;20111;-94
2022/11/17 06:11:53;;;;;;;18.55;10.70;;;;;;;8.93;100.00;97610.75;5182601;27;20113;-95
2022/11/17 06:14:19;;;;;;;18.42;11.13;;;;;;;9.04;100.00;97629.75;5182036;27;20139;-94
2022/11/17 06:16:51;;;;;;;18.50;12.02;;;;;;;9.03;100.00;97618.28;5181638;27;20053;-94
2022/11/17 06:19:20;;;;;;;20.90;13.55;;;;;;;9.14;100.00;97635.59;5182678;27;20099;-94
2022/11/17 06:21:46;;;;;;;23.13;15.35;;;;;;;9.11;100.00;97638.34;5182715;27;20042;-94
2022/11/17 06:24:12;;;;;;;22.98;14.18;;;;;;;9.04;100.00;97624.44;5182993;27;20054;-95
2022/11/17 06:26:40;;;;;;;20.35;13.23;;;;;;;9.20;100.00;97630.03;5184055;27;20060;-95
2022/11/17 06:29:08;;;;;;;23.02;13.52;;;;;;;9.25;100.00;97639.53;5185855;27;20073;-94
2022/11/17 06:31:34;;;;;;;22.67;12.60;;;;;;;9.24;100.00;97624.53;5184748;27;20038;-95
2022/11/17 06:34:03;;;;;;;19.00;12.85;;;;;;;9.39;100.00;97632.78;5183907;27;20034;-94
2022/11/17 06:36:30;;;;;;;19.35;12.77;;;;;;;9.34;100.00;97622.38;5164307;27;20057;-95
2022/11/17 06:38:57;;;;;;;20.20;13.55;;;;;;;9.35;100.00;97623.25;5170313;27;20046;-95
2022/11/17 06:41:23;;;;;;;21.85;13.50;;;;;;;9.48;100.00;97644.81;5165584;27;20026;-94
2022/11/17 06:43:49;;;;;;;23.75;13.80;;;;;;;9.52;100.00;97635.81;5148482;27;20035;-95
2022/11/17 06:46:15;;;;;;;21.85;13.10;;;;;;;9.57;100.00;97640.03;5148315;27;20050;-94
2022/11/17 06:48:41;;;;;;;20.58;12.65;;;;;;;9.74;100.00;97660.56;5149098;27;20031;-92
2022/11/17 06:51:08;;;;;;;21.70;13.35;;;;;;;9.50;100.00;97638.56;5147752;27;20043;-94
2022/11/17 06:53:34;;;;;;;20.90;13.68;;;;;;;9.63;100.00;97650.38;5149157;27;20047;-94
2022/11/17 06:58:50;;;;;;;22.70;14.05;;;;;;;9.74;100.00;97649.09;5140728;27;20189;-94
2022/11/17 07:01:16;;;;;;;23.73;14.88;;;;;;;9.85;100.00;97665.44;5140120;28;20055;-94
2022/11/17 07:03:42;;;;;;;24.48;14.95;;;;;;;9.94;100.00;97669.50;5137710;28;20039;-95
2022/11/17 07:06:09;;;;;;;23.95;14.77;;;;;;;9.97;100.00;97680.81;5137179;28;20075;-94
2022/11/17 07:08:35;;;;;;;24.40;14.70;;;;;;;9.92;100.00;97669.53;5138638;28;20107;-95
2022/11/17 07:11:02;;;;;;;23.17;14.35;;;;;;;9.98;100.00;97679.06;5140605;28;20047;-94
2022/11/17 07:13:29;;;;;;;25.20;14.93;;;;;;;9.84;100.00;97656.56;5135590;28;20062;-94
2022/11/17 07:16:01;;;;;;;21.92;14.45;;;;;;;10.02;100.00;97670.03;5141864;28;20047;-95
2022/11/17 07:18:27;;;;;;;23.25;14.20;;;;;;;9.94;100.00;97641.13;5142632;28;20111;-95
2022/11/17 07:20:53;;;;;;;24.42;15.88;;;;;;;10.02;100.00;97641.69;5141847;28;20047;-95
2022/11/17 07:23:19;;;;;;;22.63;14.48;;;;;;;9.97;100.00;97637.47;5142851;28;20043;-94
2022/11/17 07:25:45;;;;;;;29.95;16.60;;;;;;;10.13;100.00;97659.81;5142146;28;20078;-95
2022/11/17 07:28:11;;;;;;;24.20;15.05;;;;;;;10.02;100.00;97640.81;5141036;28;20054;-94
2022/11/17 07:30:37;;;;;;;24.75;15.88;;;;;;;10.13;100.00;97635.00;5141845;28;20096;-94
2022/11/17 07:33:05;;;;;;;39.47;24.33;;;;;;;10.06;100.00;97627.34;5141657;28;20408;-95
2022/11/17 07:35:31;;;;;;;29.58;19.27;;;;;;;10.14;100.00;97631.44;5140667;28;20063;-95
2022/11/17 07:37:58;;;;;;;29.00;16.90;;;;;;;10.28;100.00;97645.00;5140499;28;20044;-96
2022/11/17 07:40:24;;;;;;;25.75;16.63;;;;;;;10.23;100.00;97628.38;5142645;28;20043;-96
2022/11/17 07:42:50;;;;;;;31.92;17.52;;;;;;;10.35;100.00;97632.34;5141771;28;20040;-94
2022/11/17 07:45:16;;;;;;;35.83;20.17;;;;;;;10.47;100.00;97643.28;5141748;28;20043;-94
2022/11/17 07:47:42;;;;;;;36.63;20.63;;;;;;;10.62;100.00;97656.81;5141392;28;20044;-95
2022/11/17 07:50:10;;;;;;;29.38;19.95;;;;;;;10.64;100.00;97652.28;5137064;28;20044;-95
2022/11/17 07:52:36;;;;;;;30.02;19.38;;;;;;;10.74;100.00;97658.91;5136515;28;20114;-96
2022/11/17 07:55:02;;;;;;;31.00;20.02;;;;;;;10.76;100.00;97645.56;5136499;28;20071;-93
2022/11/17 07:57:30;;;;;;;30.58;21.17;;;;;;;10.97;100.00;97654.31;5136541;28;20051;-94
2022/11/17 07:59:55;;;;;;;32.15;19.45;;;;;;;11.06;100.00;97645.91;5138469;28;20450;-94
2022/11/17 08:02:21;;;;;;;33.47;21.33;;;;;;;11.01;100.00;97622.19;5137862;28;20044;-95
2022/11/17 08:04:47;;;;;;;28.42;19.20;;;;;;;11.14;100.00;97617.16;5140078;28;20166;-94
2022/11/17 08:07:15;;;;;;;26.60;18.02;;;;;;;11.22;100.00;97612.31;5139816;28;20142;-95
2022/11/17 08:09:40;;;;;;;23.92;16.23;;;;;;;11.31;100.00;97619.84;5126096;28;20044;-95
2022/11/17 08:12:07;;;;;;;20.85;14.50;;;;;;;11.51;100.00;97642.88;5125485;28;20097;-95
2022/11/17 08:14:33;;;;;;;24.75;15.93;;;;;;;11.47;100.00;97609.34;5127760;28;20055;-95
2022/11/17 08:16:59;;;;;;;24.45;15.85;;;;;;;11.65;100.00;97604.91;5126436;28;20040;-96
2022/11/17 08:19:25;;;;;;;22.35;15.77;;;;;;;11.74;100.00;97603.56;5125893;28;20044;-95
2022/11/17 08:21:51;;;;;;;23.50;15.40;;;;;;;11.81;100.00;97598.78;5126070;28;20070;-94
2022/11/17 08:24:18;;;;;;;23.75;16.35;;;;;;;11.83;100.00;97595.09;5127560;28;20040;-96
2022/11/17 08:26:44;;;;;;;26.00;17.23;;;;;;;12.00;100.00;97618.25;5126794;28;20039;-94
2022/11/17 08:29:10;;;;;;;27.27;17.63;;;;;;;12.08;100.00;97617.88;5127336;28;20039;-95
2022/11/17 08:31:37;;;;;;;26.08;15.73;;;;;;;12.17;100.00;97620.06;5127185;28;20043;-95
2022/11/17 08:34:03;;;;;;;25.83;16.17;;;;;;;12.18;100.00;97611.09;5127047;28;20104;-94
2022/11/17 08:36:29;;;;;;;25.27;16.17;;;;;;;12.25;100.00;97604.53;5126893;28;20039;-94
2022/11/17 08:38:55;;;;;;;24.73;15.88;;;;;;;12.43;100.00;97623.16;5127784;28;20134;-95
2022/11/17 08:41:24;;;;;;;17.25;11.02;;;;;;;12.41;100.00;97623.25;5126855;28;20051;-94
2022/11/17 08:43:50;;;;;;;22.52;10.48;;;;;;;12.37;100.00;97599.50;5127173;28;20040;-95
2022/11/17 08:46:16;;;;;;;17.30;11.35;;;;;;;12.56;100.00;97624.22;5126610;28;20069;-94
2022/11/17 08:48:42;;;;;;;22.08;12.05;;;;;;;12.60;100.00;97622.25;5127626;28;20473;-96
2022/11/17 08:51:10;;;;;;;17.80;10.70;;;;;;;12.48;100.00;97591.78;5127937;28;20063;-93
2022/11/17 08:53:36;;;;;;;22.27;11.90;;;;;;;12.50;100.00;97601.41;5127377;28;20044;-95
2022/11/17 08:56:06;;;;;;;18.95;11.77;;;;;;;12.39;100.00;97592.28;5128046;28;20089;-94
2022/11/17 08:58:37;;;;;;;22.67;12.85;;;;;;;12.55;100.00;97627.81;5127855;28;20374;-94
2022/11/17 09:01:06;;;;;;;19.48;12.15;;;;;;;12.35;100.00;97609.38;5127602;28;20051;-95
2022/11/17 09:03:32;;;;;;;;;;;;;;;12.28;100.00;97630.16;5127165;28;20134;-94
2022/11/17 09:05:58;;;;;;;20.48;13.35;;;;;;;11.89;100.00;97586.84;5125561;28;19924;-95
2022/11/17 09:08:24;;;;;;;18.48;12.43;;;;;;;12.17;100.00;97609.41;5126696;28;20077;-94
2022/11/17 09:10:50;;;;;;;22.40;12.82;;;;;;;12.20;100.00;97597.72;5127399;28;20048;-95
2022/11/17 09:13:16;;;;;;;21.63;12.15;;;;;;;12.33;100.00;97593.44;5126935;28;20185;-93
2022/11/17 09:15:44;;;;;;;16.60;10.88;;;;;;;12.62;100.00;97591.91;5127437;28;20073;-96
2022/11/17 09:18:10;;;;;;;25.70;14.95;;;;;;;12.99;100.00;97613.00;5127478;28;20046;-95
2022/11/17 09:20:36;;;;;;;30.50;19.00;;;;;;;13.17;100.00;97633.34;5126986;28;20043;-93
2022/11/17 09:23:02;;;;;;;26.70;16.08;;;;;;;13.01;100.00;97616.47;5126769;28;20167;-94
2022/11/17 09:25:28;;;;;;;16.00;10.20;;;;;;;13.07;100.00;97629.47;5125946;28;20073;-95
2022/11/17 09:27:54;;;;;;;12.77;7.68;;;;;;;12.85;100.00;97617.31;5125179;28;20048;-95
2022/11/17 09:30:21;;;;;;;13.93;8.60;;;;;;;12.82;100.00;97622.81;5126310;28;20142;-95
2022/11/17 09:32:50;;;;;;;21.33;13.73;;;;;;;13.03;100.00;97654.59;5126049;28;20054;-95
2022/11/17 09:35:16;;;;;;;16.93;10.33;;;;;;;13.02;100.00;97636.88;5126651;28;20078;-93
2022/11/17 09:37:43;;;;;;;12.30;6.53;;;;;;;12.89;99.68;97644.69;5123853;28;20311;-95
2022/11/17 09:40:14;;;;;;;13.45;6.78;;;;;;;12.91;100.00;97637.47;5126567;28;20050;-94
2022/11/17 09:42:43;;;;;;;19.88;12.80;;;;;;;13.11;100.00;97636.38;5126176;28;20047;-96
2022/11/17 09:45:17;;;;;;;17.98;9.73;;;;;;;13.21;100.00;97642.94;5124021;28;20039;-95
2022/11/17 09:47:51;;;;;;;13.43;8.52;;;;;;;13.26;100.00;97646.19;5123999;28;20050;-95
2022/11/17 09:50:22;;;;;;;14.32;9.32;;;;;;;13.28;99.77;97646.09;5127390;28;20077;-95
2022/11/17 09:53:00;;;;;;;14.50;8.77;;;;;;;13.36;99.96;97643.91;5127175;28;20040;-96
2022/11/17 09:55:31;;;;;;;13.02;8.30;;;;;;;13.59;98.91;97660.44;5127186;28;20043;-95
2022/11/17 09:58:09;;;;;;;11.95;7.63;;;;;;;13.69;98.77;97640.25;5126405;28;20051;-95
2022/11/17 10:00:38;;;;;;;20.50;9.52;;;;;;;13.65;96.09;97630.69;5123664;28;20485;-95
2022/11/17 10:03:15;;;;;;;14.63;8.47;;;;;;;13.85;97.15;97630.38;5126581;28;20059;-96
2022/11/17 10:05:42;;;;;;;14.32;8.43;;;;;;;13.94;96.74;97624.53;5127214;28;20044;-96
2022/11/17 10:08:14;;;;;;;15.13;7.85;;;;;;;14.00;95.26;97628.63;5125565;28;20093;-95
2022/11/17 10:10:44;;;;;;;13.85;7.95;;;;;;;14.14;93.86;97615.31;5125849;28;20051;-95
2022/11/17 10:13:21;;;;;;;135.85;56.15;;;;;;;14.38;93.15;97630.84;5125784;28;20039;-96
2022/11/17 10:15:49;;;;;;;15.73;10.45;;;;;;;14.17;92.57;97608.91;5123175;28;20043;-94
2022/11/17 10:18:16;;;;;;;35.33;30.87;;;;;;;14.21;93.72;97609.59;5124318;28;20036;-96
2022/11/17 10:20:43;;;;;;;37.03;28.48;;;;;;;14.11;94.25;97610.13;5124927;28;20591;-95
2022/11/17 10:23:12;;;;;;;18.52;11.13;;;;;;;14.09;93.39;97612.03;5125401;28;20040;-96
2022/11/17 10:25:39;;;;;;;;;;;;;;;14.17;94.52;97633.81;5123585;28;20044;-95
2022/11/17 10:28:25;;;;;;;15.52;8.70;;;;;;;13.91;95.81;97624.69;5123463;28;19927;-94
2022/11/17 10:31:00;;;;;;;22.73;14.77;;;;;;;14.18;95.17;97638.25;5120787;28;20568;-95
2022/11/17 10:33:39;;;;;;;18.10;12.50;;;;;;;14.22;93.21;97622.00;5121743;28;20053;-95
2022/11/17 10:36:19;;;;;;;14.30;9.73;;;;;;;14.32;92.77;97632.03;5121051;28;20159;-96
2022/11/17 10:38:57;;;;;;;17.48;9.63;;;;;;;14.14;93.81;97593.06;5124153;28;20051;-95
2022/11/17 10:41:38;;;;;;;11.43;8.82;;;;;;;14.18;94.91;97586.56;5125255;28;20043;-95
2022/11/17 10:44:21;;;;;;;15.13;9.20;;;;;;;14.23;92.17;97607.69;5123771;28;20039;-95
2022/11/17 10:47:03;;;;;;;9.65;7.90;;;;;;;14.12;91.20;97590.47;5120345;28;20111;-95
2022/11/17 10:50:13;;;;;;;12.88;9.63;;;;;;;14.14;91.48;97585.91;5120693;28;20043;-96
2022/11/17 10:53:15;;;;;;;10.55;5.28;;;;;;;14.25;91.28;97605.75;5123433;28;20054;-95
2022/11/17 10:55:45;;;;;;;11.30;7.97;;;;;;;14.20;91.70;97578.44;5120133;28;20059;-94
2022/11/17 10:58:38;;;;;;;11.10;6.43;;;;;;;14.24;91.59;97590.69;5120972;28;20048;-94
2022/11/17 11:01:08;;;;;;;10.40;5.70;;;;;;;14.44;90.64;97595.66;5120603;28;20048;-96
2022/11/17 11:03:35;;;;;;;7.63;5.20;;;;;;;14.61;90.03;97600.00;5121831;28;20377;-95
2022/11/17 11:06:28;;;;;;;7.93;4.70;;;;;;;14.72;91.03;97593.97;5120859;28;20043;-95
2022/11/17 11:09:02;;;;;;;9.70;5.22;;;;;;;14.86;88.78;97588.63;5121748;28;20089;-95
2022/11/17 11:11:52;;;;;;;12.77;5.38;;;;;;;15.03;87.42;97582.22;5119712;28;20044;-94
2022/11/17 11:14:30;;;;;;;10.30;4.70;;;;;;;15.22;86.27;97619.34;5119541;28;20068;-95
2022/11/17 11:17:40;;;;;;;8.02;4.18;;;;;;;14.99;85.65;97596.75;5120154;28;20048;-95
2022/11/17 11:20:19;;;;;;;8.45;4.63;;;;;;;15.08;87.84;97581.91;5118593;28;20048;-94
2022/11/17 11:23:11;;;;;;;9.63;4.85;;;;;;;15.30;87.31;97597.44;5102730;28;20055;-96
2022/11/17 11:25:56;;;;;;;10.45;5.50;;;;;;;15.31;88.25;97580.41;5102894;28;20048;-94
2022/11/17 11:28:38;;;;;;;10.25;5.50;;;;;;;15.48;89.04;97592.69;5101860;28;20094;-96
2022/11/17 11:31:30;;;;;;;11.50;5.30;;;;;;;15.48;87.83;97588.19;5100830;28;20054;-95
2022/11/17 11:34:41;;;;;;;36.55;20.92;;;;;;;15.63;86.83;97593.50;5105397;28;20044;-95
2022/11/17 11:37:36;;;;;;;25.60;13.93;;;;;;;15.74;86.77;97613.31;5104317;28;20131;-96
2022/11/17 11:44:13;;;;;;;11.73;6.90;;;;;;;15.60;86.27;97586.53;5103304;28;20028;-95
2022/11/17 11:46:52;;;;;;;15.35;10.70;;;;;;;15.59;87.40;97568.72;5110392;28;20079;-95
2022/11/17 11:49:28;;;;;;;12.13;6.35;;;;;;;15.76;88.06;97570.31;5109952;28;20047;-95
2022/11/17 11:51:54;;;;;;;8.30;4.80;;;;;;;15.78;86.09;97568.41;5109523;28;20044;-95
2022/11/17 11:54:31;;;;;;;9.27;5.07;;;;;;;16.04;86.42;97580.03;5108297;28;20098;-95
2022/11/17 11:56:57;;;;;;;9.05;3.55;;;;;;;16.13;83.18;97574.03;5106458;28;20090;-96
2022/11/17 11:59:36;;;;;;;7.68;3.80;;;;;;;16.19;83.00;97588.84;5108603;28;20048;-95
2022/11/17 12:02:20;;;;;;;8.52;4.43;;;;;;;16.08;81.50;97573.50;5107090;28;20083;-95
2022/11/17 12:04:55;;;;;;;12.93;5.20;;;;;;;15.96;81.53;97553.75;5107077;28;20044;-96
2022/11/17 12:07:25;;;;;;;13.68;5.25;;;;;;;15.94;82.87;97547.63;5109137;28;20070;-95
2022/11/17 12:10:01;;;;;;;11.70;6.20;;;;;;;16.07;79.92;97570.91;5106700;28;20139;-96